sensor_id;sensor_type;location;lat;lon;timestamp;P1;durP1;ratioP1;P2;durP2;ratioP2
18887;SDS011;9576;47.792;9.628;2023-04-21T00:00:07;8.00;;;4.60;;
18887;SDS011;9576;47.792;9.628;2023-04-21T00:03:10;11.68;;;6.03;;
18887;SDS011;9576;47.792;9.628;2023-04-21T00:06:11;10.80;;;6.53;;
18887;SDS011;9576;47.792;9.628;2023-04-21T00:09:14;9.48;;;5.75;;
18887;SDS011;9576;47.792;9.628;2023-04-21T00:12:17;9.90;;;6.05;;
18887;SDS011;9576;47.792;9.628;2023-04-21T00:15:21;11.93;;;7.13;;
18887;SDS011;9576;47.792;9.628;2023-04-21T00:18:23;17.45;;;8.55;;
18887;SDS011;9576;47.792;9.628;2023-04-21T00:21:26;18.50;;;8.33;;
18887;SDS011;9576;47.792;9.628;2023-04-21T00:24:28;14.25;;;7.03;;
18887;SDS011;9576;47.792;9.628;2023-04-21T00:27:30;10.90;;;6.30;;
18887;SDS011;9576;47.792;9.628;2023-04-21T00:30:33;13.15;;;6.53;;
18887;SDS011;9576;47.792;9.628;2023-04-21T00:33:35;12.50;;;7.22;;
18887;SDS011;9576;47.792;9.628;2023-04-21T00:36:37;12.77;;;7.57;;
18887;SDS011;9576;47.792;9.628;2023-04-21T00:39:39;16.50;;;8.70;;
18887;SDS011;9576;47.792;9.628;2023-04-21T00:42:41;18.48;;;8.02;;
18887;SDS011;9576;47.792;9.628;2023-04-21T00:45:45;14.93;;;7.72;;
18887;SDS011;9576;47.792;9.628;2023-04-21T00:48:47;16.65;;;7.88;;
18887;SDS011;9576;47.792;9.628;2023-04-21T00:51:49;14.15;;;7.60;;
18887;SDS011;9576;47.792;9.628;2023-04-21T00:54:52;12.90;;;6.68;;
18887;SDS011;9576;47.792;9.628;2023-04-21T00:57:55;15.68;;;7.95;;
18887;SDS011;9576;47.792;9.628;2023-04-21T01:00:58;14.15;;;8.52;;
18887;SDS011;9576;47.792;9.628;2023-04-21T01:04:00;11.20;;;6.47;;
18887;SDS011;9576;47.792;9.628;2023-04-21T01:07:04;11.20;;;6.40;;
18887;SDS011;9576;47.792;9.628;2023-04-21T01:10:07;12.18;;;6.50;;
18887;SDS011;9576;47.792;9.628;2023-04-21T01:13:09;10.48;;;5.95;;
18887;SDS011;9576;47.792;9.628;2023-04-21T01:16:16;11.82;;;6.45;;
18887;SDS011;9576;47.792;9.628;2023-04-21T01:19:18;10.52;;;6.38;;
18887;SDS011;9576;47.792;9.628;2023-04-21T01:22:22;11.43;;;6.07;;
18887;SDS011;9576;47.792;9.628;2023-04-21T01:25:23;24.33;;;6.93;;
18887;SDS011;9576;47.792;9.628;2023-04-21T01:28:27;12.27;;;5.70;;
18887;SDS011;9576;47.792;9.628;2023-04-21T01:31:29;9.18;;;5.32;;
18887;SDS011;9576;47.792;9.628;2023-04-21T01:34:31;9.20;;;5.78;;
18887;SDS011;9576;47.792;9.628;2023-04-21T01:37:34;7.60;;;5.05;;
18887;SDS011;9576;47.792;9.628;2023-04-21T01:40:36;11.73;;;6.43;;
18887;SDS011;9576;47.792;9.628;2023-04-21T01:43:40;10.70;;;5.25;;
18887;SDS011;9576;47.792;9.628;2023-04-21T01:46:42;10.35;;;5.93;;
18887;SDS011;9576;47.792;9.628;2023-04-21T01:49:44;9.85;;;6.15;;
18887;SDS011;9576;47.792;9.628;2023-04-21T01:52:48;9.40;;;5.85;;
18887;SDS011;9576;47.792;9.628;2023-04-21T01:55:50;10.15;;;6.13;;
18887;SDS011;9576;47.792;9.628;2023-04-21T01:58:52;11.60;;;6.38;;
18887;SDS011;9576;47.792;9.628;2023-04-21T02:01:54;13.23;;;5.80;;
18887;SDS011;9576;47.792;9.628;2023-04-21T02:04:55;11.35;;;6.10;;
18887;SDS011;9576;47.792;9.628;2023-04-21T02:07:59;12.63;;;6.90;;
18887;SDS011;9576;47.792;9.628;2023-04-21T02:11:01;15.50;;;6.50;;
18887;SDS011;9576;47.792;9.628;2023-04-21T02:14:03;11.60;;;6.68;;
18887;SDS011;9576;47.792;9.628;2023-04-21T02:17:05;12.93;;;7.03;;
18887;SDS011;9576;47.792;9.628;2023-04-21T02:20:07;10.05;;;6.80;;
18887;SDS011;9576;47.792;9.628;2023-04-21T02:23:12;11.88;;;6.80;;
18887;SDS011;9576;47.792;9.628;2023-04-21T02:26:14;11.82;;;6.60;;
18887;SDS011;9576;47.792;9.628;2023-04-21T02:29:16;9.73;;;5.85;;
18887;SDS011;9576;47.792;9.628;2023-04-21T02:32:18;9.80;;;6.68;;
18887;SDS011;9576;47.792;9.628;2023-04-21T02:35:20;9.07;;;5.93;;
18887;SDS011;9576;47.792;9.628;2023-04-21T02:38:23;9.80;;;5.25;;
18887;SDS011;9576;47.792;9.628;2023-04-21T02:41:25;8.27;;;5.65;;
18887;SDS011;9576;47.792;9.628;2023-04-21T02:44:27;8.57;;;5.13;;
18887;SDS011;9576;47.792;9.628;2023-04-21T02:47:29;9.18;;;5.20;;
18887;SDS011;9576;47.792;9.628;2023-04-21T02:50:31;6.82;;;4.80;;
18887;SDS011;9576;47.792;9.628;2023-04-21T02:53:34;8.55;;;5.35;;
18887;SDS011;9576;47.792;9.628;2023-04-21T02:56:36;9.18;;;5.90;;
18887;SDS011;9576;47.792;9.628;2023-04-21T02:59:38;10.82;;;6.57;;
18887;SDS011;9576;47.792;9.628;2023-04-21T03:02:40;10.20;;;5.82;;
18887;SDS011;9576;47.792;9.628;2023-04-21T03:05:43;8.00;;;4.75;;
18887;SDS011;9576;47.792;9.628;2023-04-21T03:08:46;19.50;;;5.95;;
18887;SDS011;9576;47.792;9.628;2023-04-21T03:11:48;10.05;;;5.00;;
18887;SDS011;9576;47.792;9.628;2023-04-21T03:14:50;10.32;;;5.43;;
18887;SDS011;9576;47.792;9.628;2023-04-21T03:17:52;8.65;;;5.78;;
18887;SDS011;9576;47.792;9.628;2023-04-21T03:20:57;9.40;;;5.30;;
18887;SDS011;9576;47.792;9.628;2023-04-21T03:24:02;10.77;;;6.68;;
18887;SDS011;9576;47.792;9.628;2023-04-21T03:27:04;13.10;;;5.88;;
18887;SDS011;9576;47.792;9.628;2023-04-21T03:30:06;10.48;;;6.78;;
18887;SDS011;9576;47.792;9.628;2023-04-21T03:33:09;10.30;;;5.97;;
18887;SDS011;9576;47.792;9.628;2023-04-21T03:36:11;14.18;;;7.00;;
18887;SDS011;9576;47.792;9.628;2023-04-21T03:39:14;13.63;;;7.57;;
18887;SDS011;9576;47.792;9.628;2023-04-21T03:42:16;14.30;;;7.47;;
18887;SDS011;9576;47.792;9.628;2023-04-21T03:45:18;15.50;;;8.77;;
18887;SDS011;9576;47.792;9.628;2023-04-21T03:48:21;15.77;;;9.00;;
18887;SDS011;9576;47.792;9.628;2023-04-21T03:51:23;16.85;;;9.02;;
18887;SDS011;9576;47.792;9.628;2023-04-21T03:54:27;17.98;;;8.57;;
18887;SDS011;9576;47.792;9.628;2023-04-21T03:57:29;16.98;;;8.65;;
18887;SDS011;9576;47.792;9.628;2023-04-21T04:00:31;20.42;;;9.15;;
18887;SDS011;9576;47.792;9.628;2023-04-21T04:03:33;18.02;;;9.23;;
18887;SDS011;9576;47.792;9.628;2023-04-21T04:06:35;21.30;;;9.45;;
18887;SDS011;9576;47.792;9.628;2023-04-21T04:09:38;17.52;;;9.52;;
18887;SDS011;9576;47.792;9.628;2023-04-21T04:12:40;16.52;;;9.38;;
18887;SDS011;9576;47.792;9.628;2023-04-21T04:15:42;19.48;;;9.02;;
18887;SDS011;9576;47.792;9.628;2023-04-21T04:18:44;22.70;;;8.60;;
18887;SDS011;9576;47.792;9.628;2023-04-21T04:21:46;15.02;;;8.80;;
18887;SDS011;9576;47.792;9.628;2023-04-21T04:24:49;19.80;;;11.00;;
18887;SDS011;9576;47.792;9.628;2023-04-21T04:27:52;19.23;;;9.98;;
18887;SDS011;9576;47.792;9.628;2023-04-21T04:30:54;18.02;;;9.35;;
18887;SDS011;9576;47.792;9.628;2023-04-21T04:33:56;18.48;;;9.40;;
18887;SDS011;9576;47.792;9.628;2023-04-21T04:37:00;21.77;;;11.43;;
18887;SDS011;9576;47.792;9.628;2023-04-21T04:40:04;34.03;;;12.48;;
18887;SDS011;9576;47.792;9.628;2023-04-21T04:43:09;17.55;;;9.95;;
18887;SDS011;9576;47.792;9.628;2023-04-21T04:46:11;21.77;;;9.48;;
18887;SDS011;9576;47.792;9.628;2023-04-21T04:49:13;17.45;;;8.70;;
18887;SDS011;9576;47.792;9.628;2023-04-21T04:52:15;29.13;;;9.80;;
18887;SDS011;9576;47.792;9.628;2023-04-21T04:55:19;14.82;;;9.20;;
18887;SDS011;9576;47.792;9.628;2023-04-21T04:58:21;14.25;;;8.57;;
18887;SDS011;9576;47.792;9.628;2023-04-21T05:01:23;19.67;;;10.20;;
18887;SDS011;9576;47.792;9.628;2023-04-21T05:04:29;15.95;;;8.32;;
18887;SDS011;9576;47.792;9.628;2023-04-21T05:07:31;15.07;;;8.98;;
18887;SDS011;9576;47.792;9.628;2023-04-21T05:10:34;13.13;;;8.45;;
18887;SDS011;9576;47.792;9.628;2023-04-21T05:13:36;26.63;;;10.55;;
18887;SDS011;9576;47.792;9.628;2023-04-21T05:16:38;17.48;;;9.55;;
18887;SDS011;9576;47.792;9.628;2023-04-21T05:19:40;15.75;;;8.82;;
18887;SDS011;9576;47.792;9.628;2023-04-21T05:22:42;18.02;;;9.70;;
18887;SDS011;9576;47.792;9.628;2023-04-21T05:25:45;15.73;;;8.73;;
18887;SDS011;9576;47.792;9.628;2023-04-21T05:28:48;18.92;;;9.45;;
18887;SDS011;9576;47.792;9.628;2023-04-21T05:31:50;20.20;;;9.85;;
18887;SDS011;9576;47.792;9.628;2023-04-21T05:34:51;20.48;;;10.13;;
18887;SDS011;9576;47.792;9.628;2023-04-21T05:37:53;22.38;;;11.35;;
18887;SDS011;9576;47.792;9.628;2023-04-21T05:40:57;17.90;;;9.60;;
18887;SDS011;9576;47.792;9.628;2023-04-21T05:43:59;22.67;;;10.40;;
18887;SDS011;9576;47.792;9.628;2023-04-21T05:47:00;23.60;;;10.20;;
18887;SDS011;9576;47.792;9.628;2023-04-21T05:50:04;17.08;;;9.15;;
18887;SDS011;9576;47.792;9.628;2023-04-21T05:53:07;16.48;;;8.65;;
18887;SDS011;9576;47.792;9.628;2023-04-21T05:56:10;17.70;;;9.73;;
18887;SDS011;9576;47.792;9.628;2023-04-21T05:59:13;28.60;;;11.15;;
18887;SDS011;9576;47.792;9.628;2023-04-21T06:02:15;21.80;;;10.50;;
18887;SDS011;9576;47.792;9.628;2023-04-21T06:05:17;17.48;;;10.05;;
18887;SDS011;9576;47.792;9.628;2023-04-21T06:08:19;20.85;;;11.70;;
18887;SDS011;9576;47.792;9.628;2023-04-21T06:11:22;17.48;;;9.93;;
18887;SDS011;9576;47.792;9.628;2023-04-21T06:14:24;23.35;;;11.73;;
18887;SDS011;9576;47.792;9.628;2023-04-21T06:17:26;19.55;;;10.70;;
18887;SDS011;9576;47.792;9.628;2023-04-21T06:20:28;18.63;;;9.60;;
18887;SDS011;9576;47.792;9.628;2023-04-21T06:23:30;18.70;;;10.77;;
18887;SDS011;9576;47.792;9.628;2023-04-21T06:26:33;18.23;;;10.95;;
18887;SDS011;9576;47.792;9.628;2023-04-21T06:29:35;22.45;;;10.60;;
18887;SDS011;9576;47.792;9.628;2023-04-21T06:32:37;18.13;;;9.98;;
18887;SDS011;9576;47.792;9.628;2023-04-21T06:35:39;19.20;;;10.48;;
18887;SDS011;9576;47.792;9.628;2023-04-21T06:38:41;17.52;;;9.48;;
18887;SDS011;9576;47.792;9.628;2023-04-21T06:41:44;17.55;;;9.18;;
18887;SDS011;9576;47.792;9.628;2023-04-21T06:44:46;17.23;;;8.40;;
18887;SDS011;9576;47.792;9.628;2023-04-21T06:47:48;18.83;;;9.60;;
18887;SDS011;9576;47.792;9.628;2023-04-21T06:50:50;17.00;;;8.90;;
18887;SDS011;9576;47.792;9.628;2023-04-21T06:53:52;19.08;;;10.43;;
18887;SDS011;9576;47.792;9.628;2023-04-21T06:56:55;23.20;;;8.45;;
18887;SDS011;9576;47.792;9.628;2023-04-21T06:59:57;18.83;;;9.35;;
18887;SDS011;9576;47.792;9.628;2023-04-21T07:02:59;20.83;;;9.63;;
18887;SDS011;9576;47.792;9.628;2023-04-21T07:06:01;16.58;;;9.50;;
18887;SDS011;9576;47.792;9.628;2023-04-21T07:09:03;22.65;;;10.25;;
18887;SDS011;9576;47.792;9.628;2023-04-21T07:12:06;16.63;;;9.20;;
18887;SDS011;9576;47.792;9.628;2023-04-21T07:15:09;18.98;;;10.35;;
18887;SDS011;9576;47.792;9.628;2023-04-21T07:18:11;19.55;;;9.75;;
18887;SDS011;9576;47.792;9.628;2023-04-21T07:21:13;27.38;;;9.95;;
18887;SDS011;9576;47.792;9.628;2023-04-21T07:24:14;16.70;;;8.88;;
18887;SDS011;9576;47.792;9.628;2023-04-21T07:27:18;16.55;;;9.38;;
18887;SDS011;9576;47.792;9.628;2023-04-21T07:30:20;20.20;;;10.18;;
18887;SDS011;9576;47.792;9.628;2023-04-21T07:33:22;14.55;;;7.53;;
18887;SDS011;9576;47.792;9.628;2023-04-21T07:36:24;20.23;;;9.15;;
18887;SDS011;9576;47.792;9.628;2023-04-21T07:39:27;15.77;;;9.27;;
18887;SDS011;9576;47.792;9.628;2023-04-21T07:42:30;16.52;;;9.48;;
18887;SDS011;9576;47.792;9.628;2023-04-21T07:45:33;27.08;;;10.25;;
18887;SDS011;9576;47.792;9.628;2023-04-21T07:48:35;15.30;;;8.60;;
18887;SDS011;9576;47.792;9.628;2023-04-21T07:51:37;15.25;;;8.90;;
18887;SDS011;9576;47.792;9.628;2023-04-21T07:54:40;15.60;;;9.43;;
18887;SDS011;9576;47.792;9.628;2023-04-21T07:57:43;14.80;;;9.20;;
18887;SDS011;9576;47.792;9.628;2023-04-21T08:00:45;14.90;;;8.48;;
18887;SDS011;9576;47.792;9.628;2023-04-21T08:03:47;18.92;;;8.80;;
18887;SDS011;9576;47.792;9.628;2023-04-21T08:06:49;16.48;;;8.98;;
18887;SDS011;9576;47.792;9.628;2023-04-21T08:09:50;17.85;;;9.32;;
18887;SDS011;9576;47.792;9.628;2023-04-21T08:12:54;14.93;;;8.55;;
18887;SDS011;9576;47.792;9.628;2023-04-21T08:15:56;20.88;;;9.32;;
18887;SDS011;9576;47.792;9.628;2023-04-21T08:18:58;15.73;;;9.48;;
18887;SDS011;9576;47.792;9.628;2023-04-21T08:22:00;16.30;;;9.20;;
18887;SDS011;9576;47.792;9.628;2023-04-21T08:25:02;11.30;;;7.93;;
18887;SDS011;9576;47.792;9.628;2023-04-21T08:28:06;13.80;;;7.85;;
18887;SDS011;9576;47.792;9.628;2023-04-21T08:31:08;16.92;;;7.47;;
18887;SDS011;9576;47.792;9.628;2023-04-21T08:34:10;14.23;;;7.55;;
18887;SDS011;9576;47.792;9.628;2023-04-21T08:37:12;12.30;;;7.72;;
18887;SDS011;9576;47.792;9.628;2023-04-21T08:40:13;16.02;;;7.00;;
18887;SDS011;9576;47.792;9.628;2023-04-21T08:43:17;12.05;;;7.07;;
18887;SDS011;9576;47.792;9.628;2023-04-21T08:46:20;11.38;;;6.82;;
18887;SDS011;9576;47.792;9.628;2023-04-21T08:49:22;11.45;;;7.03;;
18887;SDS011;9576;47.792;9.628;2023-04-21T08:52:29;10.63;;;6.30;;
18887;SDS011;9576;47.792;9.628;2023-04-21T08:55:31;11.10;;;7.25;;
18887;SDS011;9576;47.792;9.628;2023-04-21T08:58:34;12.00;;;6.68;;
18887;SDS011;9576;47.792;9.628;2023-04-21T09:05:12;12.23;;;6.35;;
18887;SDS011;9576;47.792;9.628;2023-04-21T09:08:22;9.93;;;6.25;;
18887;SDS011;9576;47.792;9.628;2023-04-21T09:11:26;8.13;;;5.38;;
18887;SDS011;9576;47.792;9.628;2023-04-21T09:14:35;8.60;;;5.22;;
18887;SDS011;9576;47.792;9.628;2023-04-21T09:17:36;9.05;;;5.95;;
18887;SDS011;9576;47.792;9.628;2023-04-21T09:20:38;8.63;;;4.88;;
18887;SDS011;9576;47.792;9.628;2023-04-21T09:23:43;8.70;;;4.67;;
18887;SDS011;9576;47.792;9.628;2023-04-21T09:26:48;13.98;;;5.18;;
18887;SDS011;9576;47.792;9.628;2023-04-21T09:29:52;8.98;;;4.90;;
18887;SDS011;9576;47.792;9.628;2023-04-21T09:32:55;6.38;;;4.32;;
18887;SDS011;9576;47.792;9.628;2023-04-21T09:35:59;6.70;;;4.07;;
18887;SDS011;9576;47.792;9.628;2023-04-21T09:39:02;4.47;;;3.05;;
18887;SDS011;9576;47.792;9.628;2023-04-21T09:42:08;7.00;;;3.83;;
18887;SDS011;9576;47.792;9.628;2023-04-21T09:45:12;5.05;;;3.53;;
18887;SDS011;9576;47.792;9.628;2023-04-21T09:48:15;14.40;;;4.07;;
18887;SDS011;9576;47.792;9.628;2023-04-21T09:51:18;5.93;;;3.38;;
18887;SDS011;9576;47.792;9.628;2023-04-21T09:54:20;6.38;;;3.30;;
18887;SDS011;9576;47.792;9.628;2023-04-21T09:57:29;4.32;;;3.08;;
18887;SDS011;9576;47.792;9.628;2023-04-21T10:00:33;6.28;;;3.40;;
18887;SDS011;9576;47.792;9.628;2023-04-21T10:03:38;5.82;;;3.83;;
18887;SDS011;9576;47.792;9.628;2023-04-21T10:06:41;7.78;;;4.25;;
18887;SDS011;9576;47.792;9.628;2023-04-21T10:09:44;6.38;;;4.22;;
18887;SDS011;9576;47.792;9.628;2023-04-21T10:12:48;8.48;;;3.38;;
18887;SDS011;9576;47.792;9.628;2023-04-21T10:16:01;6.40;;;3.15;;
18887;SDS011;9576;47.792;9.628;2023-04-21T10:19:15;5.60;;;3.08;;
18887;SDS011;9576;47.792;9.628;2023-04-21T10:22:27;5.32;;;3.20;;
18887;SDS011;9576;47.792;9.628;2023-04-21T10:25:30;5.90;;;2.90;;
18887;SDS011;9576;47.792;9.628;2023-04-21T10:28:42;7.38;;;2.72;;
18887;SDS011;9576;47.792;9.628;2023-04-21T10:31:51;4.82;;;2.63;;
18887;SDS011;9576;47.792;9.628;2023-04-21T10:34:54;8.50;;;2.83;;
18887;SDS011;9576;47.792;9.628;2023-04-21T10:37:57;3.33;;;2.60;;
18887;SDS011;9576;47.792;9.628;2023-04-21T10:41:07;6.32;;;2.47;;
18887;SDS011;9576;47.792;9.628;2023-04-21T10:44:27;3.78;;;3.05;;
18887;SDS011;9576;47.792;9.628;2023-04-21T10:47:34;2.78;;;2.20;;
18887;SDS011;9576;47.792;9.628;2023-04-21T10:50:37;3.92;;;2.50;;
18887;SDS011;9576;47.792;9.628;2023-04-21T10:53:42;3.88;;;2.85;;
18887;SDS011;9576;47.792;9.628;2023-04-21T10:56:44;4.22;;;2.75;;
18887;SDS011;9576;47.792;9.628;2023-04-21T10:59:47;2.65;;;2.25;;
18887;SDS011;9576;47.792;9.628;2023-04-21T11:02:54;2.90;;;2.20;;
18887;SDS011;9576;47.792;9.628;2023-04-21T11:05:58;3.33;;;2.33;;
18887;SDS011;9576;47.792;9.628;2023-04-21T11:09:00;4.57;;;2.00;;
18887;SDS011;9576;47.792;9.628;2023-04-21T11:12:03;3.22;;;2.05;;
18887;SDS011;9576;47.792;9.628;2023-04-21T11:15:07;3.72;;;2.05;;
18887;SDS011;9576;47.792;9.628;2023-04-21T11:18:13;2.67;;;1.95;;
18887;SDS011;9576;47.792;9.628;2023-04-21T11:21:16;3.42;;;2.35;;
18887;SDS011;9576;47.792;9.628;2023-04-21T11:24:20;2.42;;;2.10;;
18887;SDS011;9576;47.792;9.628;2023-04-21T11:27:24;2.17;;;1.58;;
18887;SDS011;9576;47.792;9.628;2023-04-21T11:30:30;5.03;;;2.42;;
18887;SDS011;9576;47.792;9.628;2023-04-21T11:33:35;3.55;;;2.08;;
18887;SDS011;9576;47.792;9.628;2023-04-21T11:36:39;1.80;;;1.65;;
18887;SDS011;9576;47.792;9.628;2023-04-21T11:39:42;1.75;;;1.63;;
18887;SDS011;9576;47.792;9.628;2023-04-21T11:42:44;3.72;;;2.08;;
18887;SDS011;9576;47.792;9.628;2023-04-21T11:45:47;3.05;;;1.52;;
18887;SDS011;9576;47.792;9.628;2023-04-21T11:48:58;2.05;;;1.63;;
18887;SDS011;9576;47.792;9.628;2023-04-21T11:52:01;3.20;;;2.10;;
18887;SDS011;9576;47.792;9.628;2023-04-21T11:55:04;1.02;;;0.95;;
18887;SDS011;9576;47.792;9.628;2023-04-21T11:58:07;1.77;;;1.53;;
18887;SDS011;9576;47.792;9.628;2023-04-21T12:01:09;1.35;;;1.00;;
18887;SDS011;9576;47.792;9.628;2023-04-21T12:04:16;3.63;;;1.13;;
18887;SDS011;9576;47.792;9.628;2023-04-21T12:07:19;1.88;;;1.20;;
18887;SDS011;9576;47.792;9.628;2023-04-21T12:10:23;1.85;;;1.30;;
18887;SDS011;9576;47.792;9.628;2023-04-21T12:13:26;1.30;;;1.20;;
18887;SDS011;9576;47.792;9.628;2023-04-21T12:16:28;4.68;;;1.58;;
18887;SDS011;9576;47.792;9.628;2023-04-21T12:19:35;2.10;;;1.40;;
18887;SDS011;9576;47.792;9.628;2023-04-21T12:22:38;1.70;;;1.17;;
18887;SDS011;9576;47.792;9.628;2023-04-21T12:25:40;2.15;;;1.02;;
18887;SDS011;9576;47.792;9.628;2023-04-21T12:28:43;2.25;;;1.27;;
18887;SDS011;9576;47.792;9.628;2023-04-21T12:31:45;1.60;;;1.00;;
18887;SDS011;9576;47.792;9.628;2023-04-21T12:34:49;1.05;;;0.95;;
18887;SDS011;9576;47.792;9.628;2023-04-21T12:37:51;2.47;;;0.82;;
18887;SDS011;9576;47.792;9.628;2023-04-21T12:40:52;1.45;;;0.82;;
18887;SDS011;9576;47.792;9.628;2023-04-21T12:43:54;6.13;;;0.93;;
18887;SDS011;9576;47.792;9.628;2023-04-21T12:46:56;1.40;;;1.13;;
18887;SDS011;9576;47.792;9.628;2023-04-21T12:50:00;0.95;;;0.88;;
18887;SDS011;9576;47.792;9.628;2023-04-21T12:53:02;1.58;;;1.08;;
18887;SDS011;9576;47.792;9.628;2023-04-21T12:56:04;2.58;;;0.80;;
18887;SDS011;9576;47.792;9.628;2023-04-21T12:59:06;4.90;;;0.85;;
18887;SDS011;9576;47.792;9.628;2023-04-21T13:02:09;2.88;;;1.02;;
18887;SDS011;9576;47.792;9.628;2023-04-21T13:05:13;4.38;;;1.08;;
18887;SDS011;9576;47.792;9.628;2023-04-21T13:08:15;1.40;;;0.75;;
18887;SDS011;9576;47.792;9.628;2023-04-21T13:11:17;1.08;;;0.60;;
18887;SDS011;9576;47.792;9.628;2023-04-21T13:14:19;11.38;;;1.02;;
18887;SDS011;9576;47.792;9.628;2023-04-21T13:17:21;0.52;;;0.50;;
18887;SDS011;9576;47.792;9.628;2023-04-21T13:20:24;0.82;;;0.50;;
18887;SDS011;9576;47.792;9.628;2023-04-21T13:23:26;2.65;;;0.63;;
18887;SDS011;9576;47.792;9.628;2023-04-21T13:26:29;1.23;;;0.82;;
18887;SDS011;9576;47.792;9.628;2023-04-21T13:29:34;4.75;;;0.80;;
18887;SDS011;9576;47.792;9.628;2023-04-21T13:32:36;2.47;;;0.80;;
18887;SDS011;9576;47.792;9.628;2023-04-21T13:35:40;0.70;;;0.70;;
18887;SDS011;9576;47.792;9.628;2023-04-21T13:38:42;1.88;;;0.98;;
18887;SDS011;9576;47.792;9.628;2023-04-21T13:41:44;1.63;;;0.70;;
18887;SDS011;9576;47.792;9.628;2023-04-21T13:44:46;0.57;;;0.40;;
18887;SDS011;9576;47.792;9.628;2023-04-21T13:47:48;0.68;;;0.50;;
18887;SDS011;9576;47.792;9.628;2023-04-21T13:50:52;0.80;;;0.40;;
18887;SDS011;9576;47.792;9.628;2023-04-21T13:53:54;0.30;;;0.30;;
18887;SDS011;9576;47.792;9.628;2023-04-21T13:56:56;0.57;;;0.50;;
18887;SDS011;9576;47.792;9.628;2023-04-21T13:59:57;0.47;;;0.35;;
18887;SDS011;9576;47.792;9.628;2023-04-21T14:02:59;1.30;;;0.70;;
18887;SDS011;9576;47.792;9.628;2023-04-21T14:06:03;4.00;;;0.60;;
18887;SDS011;9576;47.792;9.628;2023-04-21T14:09:05;0.40;;;0.40;;
18887;SDS011;9576;47.792;9.628;2023-04-21T14:12:08;0.65;;;0.38;;
18887;SDS011;9576;47.792;9.628;2023-04-21T14:15:10;0.82;;;0.60;;
18887;SDS011;9576;47.792;9.628;2023-04-21T14:18:13;0.40;;;0.40;;
18887;SDS011;9576;47.792;9.628;2023-04-21T14:21:16;0.50;;;0.50;;
18887;SDS011;9576;47.792;9.628;2023-04-21T14:24:18;0.52;;;0.50;;
18887;SDS011;9576;47.792;9.628;2023-04-21T14:27:20;0.45;;;0.32;;
18887;SDS011;9576;47.792;9.628;2023-04-21T14:30:22;0.40;;;0.40;;
18887;SDS011;9576;47.792;9.628;2023-04-21T14:33:24;13.73;;;0.60;;
18887;SDS011;9576;47.792;9.628;2023-04-21T14:36:27;2.53;;;0.52;;
18887;SDS011;9576;47.792;9.628;2023-04-21T14:39:30;0.20;;;0.20;;
18887;SDS011;9576;47.792;9.628;2023-04-21T14:42:33;0.60;;;0.30;;
18887;SDS011;9576;47.792;9.628;2023-04-21T14:45:35;0.38;;;0.38;;
18887;SDS011;9576;47.792;9.628;2023-04-21T14:48:37;0.63;;;0.40;;
18887;SDS011;9576;47.792;9.628;2023-04-21T14:51:42;2.27;;;0.47;;
18887;SDS011;9576;47.792;9.628;2023-04-21T14:57:47;0.90;;;0.65;;
18887;SDS011;9576;47.792;9.628;2023-04-21T15:00:50;1.35;;;0.80;;
18887;SDS011;9576;47.792;9.628;2023-04-21T15:03:52;2.80;;;0.60;;
18887;SDS011;9576;47.792;9.628;2023-04-21T15:06:57;0.47;;;0.47;;
18887;SDS011;9576;47.792;9.628;2023-04-21T15:09:59;1.30;;;0.80;;
18887;SDS011;9576;47.792;9.628;2023-04-21T15:13:01;1.50;;;0.93;;
18887;SDS011;9576;47.792;9.628;2023-04-21T15:16:03;7.50;;;1.10;;
18887;SDS011;9576;47.792;9.628;2023-04-21T15:19:06;2.58;;;0.85;;
18887;SDS011;9576;47.792;9.628;2023-04-21T15:22:09;1.52;;;0.95;;
18887;SDS011;9576;47.792;9.628;2023-04-21T15:25:11;4.25;;;0.77;;
18887;SDS011;9576;47.792;9.628;2023-04-21T15:28:14;9.57;;;1.27;;
18887;SDS011;9576;47.792;9.628;2023-04-21T15:31:16;5.00;;;1.20;;
18887;SDS011;9576;47.792;9.628;2023-04-21T15:34:17;0.85;;;0.82;;
18887;SDS011;9576;47.792;9.628;2023-04-21T15:37:21;1.67;;;1.27;;
18887;SDS011;9576;47.792;9.628;2023-04-21T15:40:23;2.88;;;1.23;;
18887;SDS011;9576;47.792;9.628;2023-04-21T15:43:25;8.88;;;4.45;;
18887;SDS011;9576;47.792;9.628;2023-04-21T15:46:27;5.95;;;1.42;;
18887;SDS011;9576;47.792;9.628;2023-04-21T15:49:28;1.38;;;1.17;;
18887;SDS011;9576;47.792;9.628;2023-04-21T15:52:32;1.80;;;1.00;;
18887;SDS011;9576;47.792;9.628;2023-04-21T15:55:36;1.65;;;1.23;;
18887;SDS011;9576;47.792;9.628;2023-04-21T15:58:38;4.40;;;0.95;;
18887;SDS011;9576;47.792;9.628;2023-04-21T16:01:40;1.23;;;0.80;;
18887;SDS011;9576;47.792;9.628;2023-04-21T16:04:42;2.13;;;0.90;;
18887;SDS011;9576;47.792;9.628;2023-04-21T16:07:46;2.05;;;0.90;;
18887;SDS011;9576;47.792;9.628;2023-04-21T16:10:47;3.28;;;1.17;;
18887;SDS011;9576;47.792;9.628;2023-04-21T16:13:50;1.70;;;0.93;;
18887;SDS011;9576;47.792;9.628;2023-04-21T16:16:52;9.60;;;2.55;;
18887;SDS011;9576;47.792;9.628;2023-04-21T16:19:53;3.60;;;1.50;;
18887;SDS011;9576;47.792;9.628;2023-04-21T16:22:57;1.23;;;1.13;;
18887;SDS011;9576;47.792;9.628;2023-04-21T16:25:59;1.50;;;1.20;;
18887;SDS011;9576;47.792;9.628;2023-04-21T16:29:04;1.23;;;1.10;;
18887;SDS011;9576;47.792;9.628;2023-04-21T16:32:05;2.97;;;0.88;;
18887;SDS011;9576;47.792;9.628;2023-04-21T16:35:08;3.47;;;1.15;;
18887;SDS011;9576;47.792;9.628;2023-04-21T16:38:11;2.38;;;0.88;;
18887;SDS011;9576;47.792;9.628;2023-04-21T16:41:13;0.70;;;0.70;;
18887;SDS011;9576;47.792;9.628;2023-04-21T16:44:16;3.67;;;1.08;;
18887;SDS011;9576;47.792;9.628;2023-04-21T16:47:18;1.55;;;0.90;;
18887;SDS011;9576;47.792;9.628;2023-04-21T16:50:20;1.67;;;0.90;;
18887;SDS011;9576;47.792;9.628;2023-04-21T16:53:23;3.53;;;1.25;;
18887;SDS011;9576;47.792;9.628;2023-04-21T16:56:26;8.43;;;1.25;;
18887;SDS011;9576;47.792;9.628;2023-04-21T16:59:28;1.13;;;0.85;;
18887;SDS011;9576;47.792;9.628;2023-04-21T17:02:29;3.30;;;1.02;;
18887;SDS011;9576;47.792;9.628;2023-04-21T17:05:31;2.60;;;1.50;;
18887;SDS011;9576;47.792;9.628;2023-04-21T17:08:35;1.83;;;1.55;;
18887;SDS011;9576;47.792;9.628;2023-04-21T17:11:37;1.77;;;0.80;;
18887;SDS011;9576;47.792;9.628;2023-04-21T17:14:38;2.30;;;1.30;;
18887;SDS011;9576;47.792;9.628;2023-04-21T17:17:41;1.35;;;1.17;;
18887;SDS011;9576;47.792;9.628;2023-04-21T17:20:44;4.68;;;1.67;;
18887;SDS011;9576;47.792;9.628;2023-04-21T17:23:47;5.13;;;1.73;;
18887;SDS011;9576;47.792;9.628;2023-04-21T17:26:50;6.15;;;1.77;;
18887;SDS011;9576;47.792;9.628;2023-04-21T17:29:52;5.55;;;1.50;;
18887;SDS011;9576;47.792;9.628;2023-04-21T17:32:54;11.27;;;2.15;;
18887;SDS011;9576;47.792;9.628;2023-04-21T17:35:56;1.88;;;1.02;;
18887;SDS011;9576;47.792;9.628;2023-04-21T17:38:59;2.58;;;1.70;;
18887;SDS011;9576;47.792;9.628;2023-04-21T17:42:01;6.03;;;2.17;;
18887;SDS011;9576;47.792;9.628;2023-04-21T17:45:04;3.60;;;1.80;;
18887;SDS011;9576;47.792;9.628;2023-04-21T17:48:07;2.75;;;1.30;;
18887;SDS011;9576;47.792;9.628;2023-04-21T17:51:09;3.50;;;2.03;;
18887;SDS011;9576;47.792;9.628;2023-04-21T17:54:14;4.85;;;1.50;;
18887;SDS011;9576;47.792;9.628;2023-04-21T17:57:16;3.08;;;1.63;;
18887;SDS011;9576;47.792;9.628;2023-04-21T18:00:18;4.13;;;1.80;;
18887;SDS011;9576;47.792;9.628;2023-04-21T18:03:21;2.50;;;1.60;;
18887;SDS011;9576;47.792;9.628;2023-04-21T18:06:22;1.90;;;1.35;;
18887;SDS011;9576;47.792;9.628;2023-04-21T18:09:27;1.48;;;1.33;;
18887;SDS011;9576;47.792;9.628;2023-04-21T18:12:29;5.07;;;1.45;;
18887;SDS011;9576;47.792;9.628;2023-04-21T18:15:31;8.10;;;1.45;;
18887;SDS011;9576;47.792;9.628;2023-04-21T18:18:33;12.77;;;2.60;;
18887;SDS011;9576;47.792;9.628;2023-04-21T18:21:35;2.25;;;1.35;;
18887;SDS011;9576;47.792;9.628;2023-04-21T18:24:39;9.30;;;3.60;;
18887;SDS011;9576;47.792;9.628;2023-04-21T18:27:41;1.58;;;1.45;;
18887;SDS011;9576;47.792;9.628;2023-04-21T18:30:42;2.05;;;1.48;;
18887;SDS011;9576;47.792;9.628;2023-04-21T18:33:44;2.85;;;1.40;;
18887;SDS011;9576;47.792;9.628;2023-04-21T18:36:46;2.28;;;1.40;;